sensor_id;sensor_type;location;lat;lon;timestamp;P1;durP1;ratioP1;P2;durP2;ratioP2
63008;SDS011;49099;28.428;-16.488;2023-08-12T00:01:13;91.45;;;14.68;;
63008;SDS011;49099;28.428;-16.488;2023-08-12T00:03:40;72.90;;;13.43;;
63008;SDS011;49099;28.428;-16.488;2023-08-12T00:06:07;68.40;;;12.68;;
63008;SDS011;49099;28.428;-16.488;2023-08-12T00:08:35;66.40;;;12.80;;
63008;SDS011;49099;28.428;-16.488;2023-08-12T00:11:02;52.67;;;11.63;;
63008;SDS011;49099;28.428;-16.488;2023-08-12T00:13:29;64.00;;;12.50;;
63008;SDS011;49099;28.428;-16.488;2023-08-12T00:15:56;55.88;;;11.05;;
63008;SDS011;49099;28.428;-16.488;2023-08-12T00:18:24;61.08;;;11.50;;
63008;SDS011;49099;28.428;-16.488;2023-08-12T00:20:51;65.22;;;11.38;;
63008;SDS011;49099;28.428;-16.488;2023-08-12T00:23:19;69.40;;;12.05;;
63008;SDS011;49099;28.428;-16.488;2023-08-12T00:25:46;70.88;;;12.07;;
63008;SDS011;49099;28.428;-16.488;2023-08-12T00:28:16;47.78;;;10.48;;
63008;SDS011;49099;28.428;-16.488;2023-08-12T00:30:43;62.53;;;12.02;;
63008;SDS011;49099;28.428;-16.488;2023-08-12T00:33:10;55.70;;;10.65;;
63008;SDS011;49099;28.428;-16.488;2023-08-12T00:35:37;52.53;;;9.77;;
63008;SDS011;49099;28.428;-16.488;2023-08-12T00:38:04;55.15;;;10.02;;
63008;SDS011;49099;28.428;-16.488;2023-08-12T00:40:32;53.22;;;9.65;;
63008;SDS011;49099;28.428;-16.488;2023-08-12T00:42:59;48.85;;;8.85;;
63008;SDS011;49099;28.428;-16.488;2023-08-12T00:45:26;55.22;;;8.48;;
63008;SDS011;49099;28.428;-16.488;2023-08-12T00:47:54;49.47;;;9.15;;
63008;SDS011;49099;28.428;-16.488;2023-08-12T00:50:21;66.75;;;9.45;;
63008;SDS011;49099;28.428;-16.488;2023-08-12T00:52:49;49.58;;;9.18;;
63008;SDS011;49099;28.428;-16.488;2023-08-12T00:55:17;60.03;;;9.00;;
63008;SDS011;49099;28.428;-16.488;2023-08-12T00:57:45;60.15;;;9.43;;
63008;SDS011;49099;28.428;-16.488;2023-08-12T01:00:12;54.75;;;9.45;;
63008;SDS011;49099;28.428;-16.488;2023-08-12T01:02:42;51.50;;;9.32;;
63008;SDS011;49099;28.428;-16.488;2023-08-12T01:05:15;41.97;;;8.15;;
63008;SDS011;49099;28.428;-16.488;2023-08-12T01:07:42;47.20;;;9.68;;
63008;SDS011;49099;28.428;-16.488;2023-08-12T01:10:12;46.55;;;9.02;;
63008;SDS011;49099;28.428;-16.488;2023-08-12T01:15:23;52.03;;;8.80;;
63008;SDS011;49099;28.428;-16.488;2023-08-12T01:17:53;49.30;;;9.20;;
63008;SDS011;49099;28.428;-16.488;2023-08-12T01:20:21;49.05;;;8.40;;
63008;SDS011;49099;28.428;-16.488;2023-08-12T01:22:56;58.47;;;8.95;;
63008;SDS011;49099;28.428;-16.488;2023-08-12T01:25:25;48.35;;;8.35;;
63008;SDS011;49099;28.428;-16.488;2023-08-12T01:27:52;39.90;;;7.40;;
63008;SDS011;49099;28.428;-16.488;2023-08-12T01:30:20;57.22;;;10.00;;
63008;SDS011;49099;28.428;-16.488;2023-08-12T01:32:52;40.05;;;7.78;;
63008;SDS011;49099;28.428;-16.488;2023-08-12T01:35:27;47.65;;;8.73;;
63008;SDS011;49099;28.428;-16.488;2023-08-12T01:38:02;64.07;;;9.52;;
63008;SDS011;49099;28.428;-16.488;2023-08-12T01:40:32;49.13;;;8.32;;
63008;SDS011;49099;28.428;-16.488;2023-08-12T01:43:02;59.17;;;9.68;;
63008;SDS011;49099;28.428;-16.488;2023-08-12T01:45:32;47.75;;;8.68;;
63008;SDS011;49099;28.428;-16.488;2023-08-12T01:48:01;48.47;;;8.68;;
63008;SDS011;49099;28.428;-16.488;2023-08-12T01:50:28;44.08;;;7.85;;
63008;SDS011;49099;28.428;-16.488;2023-08-12T01:52:55;49.88;;;7.95;;
63008;SDS011;49099;28.428;-16.488;2023-08-12T01:55:23;44.60;;;8.95;;
63008;SDS011;49099;28.428;-16.488;2023-08-12T01:57:50;49.00;;;8.30;;
63008;SDS011;49099;28.428;-16.488;2023-08-12T02:00:17;41.33;;;8.60;;
63008;SDS011;49099;28.428;-16.488;2023-08-12T02:02:44;45.42;;;8.45;;
63008;SDS011;49099;28.428;-16.488;2023-08-12T02:05:14;40.17;;;7.30;;
63008;SDS011;49099;28.428;-16.488;2023-08-12T02:07:42;40.13;;;7.95;;
63008;SDS011;49099;28.428;-16.488;2023-08-12T02:10:09;49.33;;;9.27;;
63008;SDS011;49099;28.428;-16.488;2023-08-12T02:12:36;54.25;;;10.10;;
63008;SDS011;49099;28.428;-16.488;2023-08-12T02:15:04;72.85;;;11.40;;
63008;SDS011;49099;28.428;-16.488;2023-08-12T02:17:31;71.35;;;10.73;;
63008;SDS011;49099;28.428;-16.488;2023-08-12T02:19:58;58.63;;;10.93;;
63008;SDS011;49099;28.428;-16.488;2023-08-12T02:22:26;61.33;;;10.45;;
63008;SDS011;49099;28.428;-16.488;2023-08-12T02:24:53;50.63;;;9.15;;
63008;SDS011;49099;28.428;-16.488;2023-08-12T02:27:20;49.25;;;9.02;;
63008;SDS011;49099;28.428;-16.488;2023-08-12T02:29:48;53.60;;;9.57;;
63008;SDS011;49099;28.428;-16.488;2023-08-12T02:32:15;56.25;;;10.20;;
63008;SDS011;49099;28.428;-16.488;2023-08-12T02:34:42;49.33;;;8.85;;
63008;SDS011;49099;28.428;-16.488;2023-08-12T02:37:09;48.70;;;9.48;;
63008;SDS011;49099;28.428;-16.488;2023-08-12T02:39:37;49.72;;;9.43;;
63008;SDS011;49099;28.428;-16.488;2023-08-12T02:42:04;59.60;;;9.95;;
63008;SDS011;49099;28.428;-16.488;2023-08-12T02:44:31;42.75;;;8.15;;
63008;SDS011;49099;28.428;-16.488;2023-08-12T02:46:59;47.85;;;9.35;;
63008;SDS011;49099;28.428;-16.488;2023-08-12T02:49:26;45.45;;;8.77;;
63008;SDS011;49099;28.428;-16.488;2023-08-12T02:51:54;37.30;;;8.23;;
63008;SDS011;49099;28.428;-16.488;2023-08-12T02:54:21;51.78;;;9.18;;
63008;SDS011;49099;28.428;-16.488;2023-08-12T02:56:49;44.80;;;8.25;;
63008;SDS011;49099;28.428;-16.488;2023-08-12T02:59:17;41.33;;;8.07;;
63008;SDS011;49099;28.428;-16.488;2023-08-12T03:01:44;54.28;;;9.45;;
63008;SDS011;49099;28.428;-16.488;2023-08-12T03:04:11;59.65;;;9.77;;
63008;SDS011;49099;28.428;-16.488;2023-08-12T03:06:38;44.20;;;8.32;;
63008;SDS011;49099;28.428;-16.488;2023-08-12T03:09:06;56.15;;;9.05;;
63008;SDS011;49099;28.428;-16.488;2023-08-12T03:11:33;43.55;;;8.40;;
63008;SDS011;49099;28.428;-16.488;2023-08-12T03:14:00;43.78;;;8.40;;
63008;SDS011;49099;28.428;-16.488;2023-08-12T03:16:27;50.38;;;9.88;;
63008;SDS011;49099;28.428;-16.488;2023-08-12T03:18:54;45.00;;;8.02;;
63008;SDS011;49099;28.428;-16.488;2023-08-12T03:21:21;60.67;;;9.75;;
63008;SDS011;49099;28.428;-16.488;2023-08-12T03:23:49;39.80;;;7.80;;
63008;SDS011;49099;28.428;-16.488;2023-08-12T03:26:16;57.33;;;9.52;;
63008;SDS011;49099;28.428;-16.488;2023-08-12T03:28:43;60.35;;;10.23;;
63008;SDS011;49099;28.428;-16.488;2023-08-12T03:31:11;60.35;;;10.35;;
63008;SDS011;49099;28.428;-16.488;2023-08-12T03:33:38;37.75;;;7.57;;
63008;SDS011;49099;28.428;-16.488;2023-08-12T03:36:05;52.70;;;9.13;;
63008;SDS011;49099;28.428;-16.488;2023-08-12T03:38:33;51.28;;;8.70;;
63008;SDS011;49099;28.428;-16.488;2023-08-12T03:41:02;48.13;;;8.65;;
63008;SDS011;49099;28.428;-16.488;2023-08-12T03:43:30;49.63;;;9.13;;
63008;SDS011;49099;28.428;-16.488;2023-08-12T03:45:57;47.55;;;8.25;;
63008;SDS011;49099;28.428;-16.488;2023-08-12T03:48:24;45.50;;;8.27;;
63008;SDS011;49099;28.428;-16.488;2023-08-12T03:50:51;44.40;;;7.85;;
63008;SDS011;49099;28.428;-16.488;2023-08-12T03:53:18;44.70;;;7.97;;
63008;SDS011;49099;28.428;-16.488;2023-08-12T03:55:45;43.30;;;8.30;;
63008;SDS011;49099;28.428;-16.488;2023-08-12T03:58:13;62.55;;;9.77;;
63008;SDS011;49099;28.428;-16.488;2023-08-12T04:00:40;52.92;;;8.90;;
63008;SDS011;49099;28.428;-16.488;2023-08-12T04:03:09;38.95;;;7.82;;
63008;SDS011;49099;28.428;-16.488;2023-08-12T04:05:36;44.40;;;7.70;;
63008;SDS011;49099;28.428;-16.488;2023-08-12T04:08:04;40.55;;;7.00;;
63008;SDS011;49099;28.428;-16.488;2023-08-12T04:10:31;37.95;;;7.68;;
63008;SDS011;49099;28.428;-16.488;2023-08-12T04:12:58;37.03;;;7.63;;
63008;SDS011;49099;28.428;-16.488;2023-08-12T04:15:25;44.35;;;8.13;;
63008;SDS011;49099;28.428;-16.488;2023-08-12T04:17:52;38.90;;;8.07;;
63008;SDS011;49099;28.428;-16.488;2023-08-12T04:20:20;35.15;;;7.43;;
63008;SDS011;49099;28.428;-16.488;2023-08-12T04:22:47;33.92;;;7.32;;
63008;SDS011;49099;28.428;-16.488;2023-08-12T04:25:15;33.33;;;6.32;;
63008;SDS011;49099;28.428;-16.488;2023-08-12T04:27:42;42.97;;;7.68;;
63008;SDS011;49099;28.428;-16.488;2023-08-12T04:30:10;40.88;;;8.02;;
63008;SDS011;49099;28.428;-16.488;2023-08-12T04:32:37;32.17;;;6.82;;
63008;SDS011;49099;28.428;-16.488;2023-08-12T04:35:04;40.92;;;7.68;;
63008;SDS011;49099;28.428;-16.488;2023-08-12T04:37:33;45.88;;;7.85;;
63008;SDS011;49099;28.428;-16.488;2023-08-12T04:40:02;44.33;;;7.97;;
63008;SDS011;49099;28.428;-16.488;2023-08-12T04:42:34;39.13;;;7.90;;
63008;SDS011;49099;28.428;-16.488;2023-08-12T04:45:01;35.90;;;7.10;;
63008;SDS011;49099;28.428;-16.488;2023-08-12T04:47:30;40.28;;;7.60;;
63008;SDS011;49099;28.428;-16.488;2023-08-12T04:49:57;29.58;;;6.68;;
63008;SDS011;49099;28.428;-16.488;2023-08-12T04:52:24;40.28;;;6.88;;
63008;SDS011;49099;28.428;-16.488;2023-08-12T04:54:55;51.58;;;8.30;;
63008;SDS011;49099;28.428;-16.488;2023-08-12T04:57:22;45.47;;;7.63;;
63008;SDS011;49099;28.428;-16.488;2023-08-12T04:59:49;38.47;;;7.35;;
63008;SDS011;49099;28.428;-16.488;2023-08-12T05:02:17;35.65;;;6.93;;
63008;SDS011;49099;28.428;-16.488;2023-08-12T05:04:49;32.25;;;7.10;;
63008;SDS011;49099;28.428;-16.488;2023-08-12T05:07:17;35.90;;;7.32;;
63008;SDS011;49099;28.428;-16.488;2023-08-12T05:09:44;38.38;;;7.70;;
63008;SDS011;49099;28.428;-16.488;2023-08-12T05:12:12;42.80;;;7.70;;
63008;SDS011;49099;28.428;-16.488;2023-08-12T05:14:39;39.47;;;7.75;;
63008;SDS011;49099;28.428;-16.488;2023-08-12T05:17:07;45.40;;;8.07;;
63008;SDS011;49099;28.428;-16.488;2023-08-12T05:19:36;43.75;;;7.53;;
63008;SDS011;49099;28.428;-16.488;2023-08-12T05:22:03;46.25;;;7.72;;
63008;SDS011;49099;28.428;-16.488;2023-08-12T05:24:31;33.42;;;6.75;;
63008;SDS011;49099;28.428;-16.488;2023-08-12T05:26:58;40.47;;;7.13;;
63008;SDS011;49099;28.428;-16.488;2023-08-12T05:29:25;40.72;;;7.57;;
63008;SDS011;49099;28.428;-16.488;2023-08-12T05:31:53;42.13;;;7.65;;
63008;SDS011;49099;28.428;-16.488;2023-08-12T05:34:20;39.00;;;7.45;;
63008;SDS011;49099;28.428;-16.488;2023-08-12T05:36:47;43.33;;;7.20;;
63008;SDS011;49099;28.428;-16.488;2023-08-12T05:39:14;45.75;;;7.43;;
63008;SDS011;49099;28.428;-16.488;2023-08-12T05:41:44;46.25;;;8.10;;
63008;SDS011;49099;28.428;-16.488;2023-08-12T05:44:12;50.35;;;7.82;;
63008;SDS011;49099;28.428;-16.488;2023-08-12T05:46:40;43.83;;;8.15;;
63008;SDS011;49099;28.428;-16.488;2023-08-12T05:49:07;49.85;;;8.50;;
63008;SDS011;49099;28.428;-16.488;2023-08-12T05:51:34;46.78;;;7.80;;
63008;SDS011;49099;28.428;-16.488;2023-08-12T05:54:01;45.38;;;8.00;;
63008;SDS011;49099;28.428;-16.488;2023-08-12T05:56:28;38.42;;;7.50;;
63008;SDS011;49099;28.428;-16.488;2023-08-12T05:58:56;46.13;;;8.10;;
63008;SDS011;49099;28.428;-16.488;2023-08-12T06:01:23;52.08;;;8.35;;
63008;SDS011;49099;28.428;-16.488;2023-08-12T06:03:50;53.63;;;9.23;;
63008;SDS011;49099;28.428;-16.488;2023-08-12T06:06:17;45.72;;;7.80;;
63008;SDS011;49099;28.428;-16.488;2023-08-12T06:08:44;44.47;;;8.20;;
63008;SDS011;49099;28.428;-16.488;2023-08-12T06:11:11;50.45;;;8.77;;
63008;SDS011;49099;28.428;-16.488;2023-08-12T06:13:39;47.20;;;8.88;;
63008;SDS011;49099;28.428;-16.488;2023-08-12T06:16:06;53.80;;;9.27;;
63008;SDS011;49099;28.428;-16.488;2023-08-12T06:18:33;53.65;;;9.35;;
63008;SDS011;49099;28.428;-16.488;2023-08-12T06:21:00;59.78;;;8.90;;
63008;SDS011;49099;28.428;-16.488;2023-08-12T06:23:27;48.45;;;8.80;;
63008;SDS011;49099;28.428;-16.488;2023-08-12T06:25:54;47.08;;;9.25;;
63008;SDS011;49099;28.428;-16.488;2023-08-12T06:28:21;46.90;;;9.20;;
63008;SDS011;49099;28.428;-16.488;2023-08-12T06:30:49;51.10;;;8.68;;
63008;SDS011;49099;28.428;-16.488;2023-08-12T06:33:16;40.40;;;7.78;;
63008;SDS011;49099;28.428;-16.488;2023-08-12T06:35:44;53.67;;;9.38;;
63008;SDS011;49099;28.428;-16.488;2023-08-12T06:38:16;47.30;;;8.25;;
63008;SDS011;49099;28.428;-16.488;2023-08-12T06:40:43;59.17;;;9.70;;
63008;SDS011;49099;28.428;-16.488;2023-08-12T06:43:10;44.13;;;8.10;;
63008;SDS011;49099;28.428;-16.488;2023-08-12T06:45:37;51.35;;;8.52;;
63008;SDS011;49099;28.428;-16.488;2023-08-12T06:48:04;51.40;;;9.07;;
63008;SDS011;49099;28.428;-16.488;2023-08-12T06:50:32;41.20;;;8.02;;
63008;SDS011;49099;28.428;-16.488;2023-08-12T06:53:00;47.03;;;8.63;;
63008;SDS011;49099;28.428;-16.488;2023-08-12T06:55:27;35.83;;;7.68;;
63008;SDS011;49099;28.428;-16.488;2023-08-12T06:57:54;44.25;;;7.82;;
63008;SDS011;49099;28.428;-16.488;2023-08-12T07:00:21;29.65;;;6.57;;
63008;SDS011;49099;28.428;-16.488;2023-08-12T07:02:48;32.17;;;6.45;;
63008;SDS011;49099;28.428;-16.488;2023-08-12T07:05:15;36.85;;;7.78;;
63008;SDS011;49099;28.428;-16.488;2023-08-12T07:07:43;36.72;;;7.43;;
63008;SDS011;49099;28.428;-16.488;2023-08-12T07:10:10;41.80;;;7.88;;
63008;SDS011;49099;28.428;-16.488;2023-08-12T07:12:37;38.33;;;7.40;;
63008;SDS011;49099;28.428;-16.488;2023-08-12T07:15:05;37.38;;;7.30;;
63008;SDS011;49099;28.428;-16.488;2023-08-12T07:17:32;35.50;;;7.70;;
63008;SDS011;49099;28.428;-16.488;2023-08-12T07:19:59;38.15;;;7.40;;
63008;SDS011;49099;28.428;-16.488;2023-08-12T07:22:27;40.25;;;7.47;;
63008;SDS011;49099;28.428;-16.488;2023-08-12T07:24:54;39.63;;;7.45;;
63008;SDS011;49099;28.428;-16.488;2023-08-12T07:27:22;35.13;;;7.38;;
63008;SDS011;49099;28.428;-16.488;2023-08-12T07:29:49;45.70;;;8.00;;
63008;SDS011;49099;28.428;-16.488;2023-08-12T07:32:16;46.17;;;8.80;;
63008;SDS011;49099;28.428;-16.488;2023-08-12T07:34:43;51.25;;;8.90;;
63008;SDS011;49099;28.428;-16.488;2023-08-12T07:37:10;48.55;;;8.50;;
63008;SDS011;49099;28.428;-16.488;2023-08-12T07:39:38;47.67;;;9.00;;
63008;SDS011;49099;28.428;-16.488;2023-08-12T07:42:05;60.90;;;10.35;;
63008;SDS011;49099;28.428;-16.488;2023-08-12T07:44:32;51.20;;;9.32;;
63008;SDS011;49099;28.428;-16.488;2023-08-12T07:46:59;56.30;;;10.23;;
63008;SDS011;49099;28.428;-16.488;2023-08-12T07:49:26;53.40;;;9.85;;
63008;SDS011;49099;28.428;-16.488;2023-08-12T07:51:54;49.55;;;8.80;;
63008;SDS011;49099;28.428;-16.488;2023-08-12T07:54:21;49.90;;;8.45;;
63008;SDS011;49099;28.428;-16.488;2023-08-12T07:56:48;55.28;;;9.82;;
63008;SDS011;49099;28.428;-16.488;2023-08-12T07:59:15;48.47;;;8.63;;
63008;SDS011;49099;28.428;-16.488;2023-08-12T08:01:42;48.00;;;8.55;;
63008;SDS011;49099;28.428;-16.488;2023-08-12T08:04:10;43.53;;;8.27;;
63008;SDS011;49099;28.428;-16.488;2023-08-12T08:06:37;40.42;;;8.05;;
63008;SDS011;49099;28.428;-16.488;2023-08-12T08:09:04;52.10;;;8.80;;
63008;SDS011;49099;28.428;-16.488;2023-08-12T08:11:31;45.70;;;8.20;;
63008;SDS011;49099;28.428;-16.488;2023-08-12T08:14:00;48.53;;;9.15;;
63008;SDS011;49099;28.428;-16.488;2023-08-12T08:16:28;43.13;;;7.82;;
63008;SDS011;49099;28.428;-16.488;2023-08-12T08:18:55;41.90;;;8.43;;
63008;SDS011;49099;28.428;-16.488;2023-08-12T08:21:24;34.92;;;8.00;;
63008;SDS011;49099;28.428;-16.488;2023-08-12T08:23:51;44.42;;;8.00;;
63008;SDS011;49099;28.428;-16.488;2023-08-12T08:26:18;35.90;;;7.53;;
63008;SDS011;49099;28.428;-16.488;2023-08-12T08:28:46;55.90;;;9.55;;
63008;SDS011;49099;28.428;-16.488;2023-08-12T08:31:13;58.67;;;9.30;;
63008;SDS011;49099;28.428;-16.488;2023-08-12T08:33:40;63.13;;;10.85;;
63008;SDS011;49099;28.428;-16.488;2023-08-12T08:36:10;53.17;;;10.10;;
63008;SDS011;49099;28.428;-16.488;2023-08-12T08:38:37;81.68;;;13.60;;
63008;SDS011;49099;28.428;-16.488;2023-08-12T08:41:05;80.15;;;12.52;;
63008;SDS011;49099;28.428;-16.488;2023-08-12T08:43:36;61.88;;;10.15;;
63008;SDS011;49099;28.428;-16.488;2023-08-12T08:46:03;58.78;;;9.77;;
63008;SDS011;49099;28.428;-16.488;2023-08-12T08:48:32;70.97;;;10.90;;
63008;SDS011;49099;28.428;-16.488;2023-08-12T08:51:04;49.92;;;9.20;;
63008;SDS011;49099;28.428;-16.488;2023-08-12T08:53:33;50.13;;;9.57;;
63008;SDS011;49099;28.428;-16.488;2023-08-12T08:56:06;61.97;;;11.18;;
63008;SDS011;49099;28.428;-16.488;2023-08-12T08:58:40;50.92;;;9.80;;
63008;SDS011;49099;28.428;-16.488;2023-08-12T09:01:07;61.85;;;10.65;;
63008;SDS011;49099;28.428;-16.488;2023-08-12T09:03:35;67.80;;;11.55;;
63008;SDS011;49099;28.428;-16.488;2023-08-12T09:06:05;56.92;;;9.90;;
63008;SDS011;49099;28.428;-16.488;2023-08-12T09:08:32;62.20;;;10.90;;
63008;SDS011;49099;28.428;-16.488;2023-08-12T09:11:00;67.15;;;10.05;;
63008;SDS011;49099;28.428;-16.488;2023-08-12T09:13:29;60.63;;;9.90;;
63008;SDS011;49099;28.428;-16.488;2023-08-12T09:15:56;64.20;;;10.93;;
63008;SDS011;49099;28.428;-16.488;2023-08-12T09:18:24;58.70;;;11.07;;
63008;SDS011;49099;28.428;-16.488;2023-08-12T09:20:53;57.67;;;10.18;;
63008;SDS011;49099;28.428;-16.488;2023-08-12T09:23:20;57.88;;;10.23;;
63008;SDS011;49099;28.428;-16.488;2023-08-12T09:25:47;66.97;;;11.05;;
63008;SDS011;49099;28.428;-16.488;2023-08-12T09:28:15;56.28;;;9.80;;
63008;SDS011;49099;28.428;-16.488;2023-08-12T09:30:42;70.53;;;11.10;;
63008;SDS011;49099;28.428;-16.488;2023-08-12T09:33:16;69.68;;;12.27;;
63008;SDS011;49099;28.428;-16.488;2023-08-12T09:35:53;50.17;;;8.75;;
63008;SDS011;49099;28.428;-16.488;2023-08-12T09:38:20;65.05;;;10.80;;
63008;SDS011;49099;28.428;-16.488;2023-08-12T09:40:48;61.92;;;10.20;;
63008;SDS011;49099;28.428;-16.488;2023-08-12T09:43:15;54.40;;;10.35;;
63008;SDS011;49099;28.428;-16.488;2023-08-12T09:45:43;60.85;;;10.57;;
63008;SDS011;49099;28.428;-16.488;2023-08-12T09:48:12;61.78;;;10.27;;
63008;SDS011;49099;28.428;-16.488;2023-08-12T09:50:42;49.53;;;9.35;;
63008;SDS011;49099;28.428;-16.488;2023-08-12T09:53:10;48.70;;;9.25;;
63008;SDS011;49099;28.428;-16.488;2023-08-12T09:55:37;52.30;;;10.35;;
63008;SDS011;49099;28.428;-16.488;2023-08-12T09:58:06;47.38;;;9.45;;
63008;SDS011;49099;28.428;-16.488;2023-08-12T10:00:36;63.17;;;10.02;;
63008;SDS011;49099;28.428;-16.488;2023-08-12T10:03:03;57.65;;;11.13;;
63008;SDS011;49099;28.428;-16.488;2023-08-12T10:05:32;57.10;;;9.50;;
63008;SDS011;49099;28.428;-16.488;2023-08-12T10:08:00;48.92;;;8.63;;
63008;SDS011;49099;28.428;-16.488;2023-08-12T10:10:32;46.90;;;8.68;;
63008;SDS011;49099;28.428;-16.488;2023-08-12T10:13:01;49.92;;;8.75;;
63008;SDS011;49099;28.428;-16.488;2023-08-12T10:15:30;51.15;;;8.45;;
63008;SDS011;49099;28.428;-16.488;2023-08-12T10:17:57;42.58;;;8.15;;
63008;SDS011;49099;28.428;-16.488;2023-08-12T10:20:24;44.42;;;7.60;;
63008;SDS011;49099;28.428;-16.488;2023-08-12T10:22:52;39.42;;;7.80;;
63008;SDS011;49099;28.428;-16.488;2023-08-12T10:25:21;44.45;;;8.38;;
63008;SDS011;49099;28.428;-16.488;2023-08-12T10:27:48;44.85;;;8.40;;
63008;SDS011;49099;28.428;-16.488;2023-08-12T10:30:16;47.33;;;8.80;;
63008;SDS011;49099;28.428;-16.488;2023-08-12T10:32:43;53.38;;;8.52;;
63008;SDS011;49099;28.428;-16.488;2023-08-12T10:35:12;51.17;;;8.25;;
63008;SDS011;49099;28.428;-16.488;2023-08-12T10:37:40;41.25;;;7.50;;
63008;SDS011;49099;28.428;-16.488;2023-08-12T10:40:19;45.08;;;8.00;;
63008;SDS011;49099;28.428;-16.488;2023-08-12T10:42:47;50.83;;;8.43;;
63008;SDS011;49099;28.428;-16.488;2023-08-12T10:45:16;37.92;;;7.47;;
63008;SDS011;49099;28.428;-16.488;2023-08-12T10:47:48;44.13;;;8.35;;
63008;SDS011;49099;28.428;-16.488;2023-08-12T10:50:36;52.13;;;8.68;;
63008;SDS011;49099;28.428;-16.488;2023-08-12T10:55:57;38.28;;;7.60;;
63008;SDS011;49099;28.428;-16.488;2023-08-12T10:58:33;39.28;;;7.72;;
63008;SDS011;49099;28.428;-16.488;2023-08-12T11:01:02;40.33;;;8.07;;
63008;SDS011;49099;28.428;-16.488;2023-08-12T11:03:32;39.92;;;8.13;;
63008;SDS011;49099;28.428;-16.488;2023-08-12T11:06:04;46.60;;;8.00;;
63008;SDS011;49099;28.428;-16.488;2023-08-12T11:08:31;47.72;;;8.48;;
63008;SDS011;49099;28.428;-16.488;2023-08-12T11:11:00;43.53;;;7.55;;
63008;SDS011;49099;28.428;-16.488;2023-08-12T11:13:29;43.25;;;7.60;;
63008;SDS011;49099;28.428;-16.488;2023-08-12T11:16:06;42.15;;;8.05;;
63008;SDS011;49099;28.428;-16.488;2023-08-12T11:18:34;45.78;;;8.20;;
63008;SDS011;49099;28.428;-16.488;2023-08-12T11:21:02;42.40;;;7.93;;
63008;SDS011;49099;28.428;-16.488;2023-08-12T11:23:30;44.67;;;8.48;;
63008;SDS011;49099;28.428;-16.488;2023-08-12T11:25:58;46.35;;;8.27;;
63008;SDS011;49099;28.428;-16.488;2023-08-12T11:28:25;43.42;;;8.07;;
63008;SDS011;49099;28.428;-16.488;2023-08-12T11:30:52;44.35;;;7.93;;
63008;SDS011;49099;28.428;-16.488;2023-08-12T11:33:20;45.92;;;9.20;;
63008;SDS011;49099;28.428;-16.488;2023-08-12T11:35:48;47.55;;;9.38;;
63008;SDS011;49099;28.428;-16.488;2023-08-12T11:38:15;50.15;;;8.25;;
63008;SDS011;49099;28.428;-16.488;2023-08-12T11:40:43;39.17;;;7.40;;
63008;SDS011;49099;28.428;-16.488;2023-08-12T11:43:10;47.75;;;8.70;;
63008;SDS011;49099;28.428;-16.488;2023-08-12T11:45:41;53.28;;;8.38;;
63008;SDS011;49099;28.428;-16.488;2023-08-12T11:48:09;44.78;;;7.65;;
63008;SDS011;49099;28.428;-16.488;2023-08-12T11:50:36;48.03;;;8.55;;
63008;SDS011;49099;28.428;-16.488;2023-08-12T11:53:04;43.67;;;8.23;;
63008;SDS011;49099;28.428;-16.488;2023-08-12T11:55:31;52.20;;;8.82;;
63008;SDS011;49099;28.428;-16.488;2023-08-12T11:57:59;42.72;;;8.18;;
63008;SDS011;49099;28.428;-16.488;2023-08-12T12:00:26;42.88;;;8.07;;
63008;SDS011;49099;28.428;-16.488;2023-08-12T12:02:54;45.35;;;8.00;;
63008;SDS011;49099;28.428;-16.488;2023-08-12T12:05:23;37.42;;;7.80;;
63008;SDS011;49099;28.428;-16.488;2023-08-12T12:07:54;41.28;;;8.00;;
63008;SDS011;49099;28.428;-16.488;2023-08-12T12:10:26;39.25;;;8.07;;
63008;SDS011;49099;28.428;-16.488;2023-08-12T12:13:00;45.70;;;8.18;;
63008;SDS011;49099;28.428;-16.488;2023-08-12T12:15:28;44.08;;;7.80;;
63008;SDS011;49099;28.428;-16.488;2023-08-12T12:17:55;37.15;;;7.38;;
63008;SDS011;49099;28.428;-16.488;2023-08-12T12:20:22;39.83;;;7.68;;
63008;SDS011;49099;28.428;-16.488;2023-08-12T12:22:49;47.95;;;8.98;;
63008;SDS011;49099;28.428;-16.488;2023-08-12T12:25:17;46.80;;;8.32;;
63008;SDS011;49099;28.428;-16.488;2023-08-12T12:27:47;41.35;;;8.02;;
63008;SDS011;49099;28.428;-16.488;2023-08-12T12:30:15;41.35;;;8.30;;
63008;SDS011;49099;28.428;-16.488;2023-08-12T12:32:43;46.80;;;8.07;;
63008;SDS011;49099;28.428;-16.488;2023-08-12T12:35:11;44.38;;;8.13;;
63008;SDS011;49099;28.428;-16.488;2023-08-12T12:37:39;35.72;;;7.70;;
63008;SDS011;49099;28.428;-16.488;2023-08-12T12:40:06;41.25;;;7.78;;
63008;SDS011;49099;28.428;-16.488;2023-08-12T12:42:34;39.10;;;8.30;;
63008;SDS011;49099;28.428;-16.488;2023-08-12T12:45:02;46.80;;;8.48;;
63008;SDS011;49099;28.428;-16.488;2023-08-12T12:47:29;40.95;;;8.60;;
63008;SDS011;49099;28.428;-16.488;2023-08-12T12:49:56;44.67;;;8.30;;
63008;SDS011;49099;28.428;-16.488;2023-08-12T12:52:23;40.75;;;7.93;;
63008;SDS011;49099;28.428;-16.488;2023-08-12T12:54:50;38.15;;;7.70;;
63008;SDS011;49099;28.428;-16.488;2023-08-12T12:57:17;43.83;;;8.40;;
63008;SDS011;49099;28.428;-16.488;2023-08-12T12:59:44;42.15;;;8.32;;
63008;SDS011;49099;28.428;-16.488;2023-08-12T13:02:11;48.60;;;8.88;;
63008;SDS011;49099;28.428;-16.488;2023-08-12T13:04:39;46.67;;;8.48;;
63008;SDS011;49099;28.428;-16.488;2023-08-12T13:07:06;40.50;;;8.30;;
63008;SDS011;49099;28.428;-16.488;2023-08-12T13:09:33;48.10;;;8.40;;
63008;SDS011;49099;28.428;-16.488;2023-08-12T13:12:00;44.22;;;8.63;;
63008;SDS011;49099;28.428;-16.488;2023-08-12T13:14:28;47.08;;;9.00;;
63008;SDS011;49099;28.428;-16.488;2023-08-12T13:16:56;41.08;;;7.68;;
63008;SDS011;49099;28.428;-16.488;2023-08-12T13:19:24;46.55;;;8.77;;
63008;SDS011;49099;28.428;-16.488;2023-08-12T13:21:51;42.03;;;8.50;;
63008;SDS011;49099;28.428;-16.488;2023-08-12T13:24:18;41.00;;;8.00;;
63008;SDS011;49099;28.428;-16.488;2023-08-12T13:26:46;45.72;;;9.00;;
63008;SDS011;49099;28.428;-16.488;2023-08-12T13:29:14;44.97;;;8.50;;
63008;SDS011;49099;28.428;-16.488;2023-08-12T13:31:41;43.35;;;8.40;;
63008;SDS011;49099;28.428;-16.488;2023-08-12T13:34:08;48.75;;;8.25;;
63008;SDS011;49099;28.428;-16.488;2023-08-12T13:36:35;44.10;;;8.65;;
63008;SDS011;49099;28.428;-16.488;2023-08-12T13:39:03;48.47;;;8.52;;
63008;SDS011;49099;28.428;-16.488;2023-08-12T13:41:30;39.85;;;8.52;;
63008;SDS011;49099;28.428;-16.488;2023-08-12T13:43:57;49.00;;;8.88;;
63008;SDS011;49099;28.428;-16.488;2023-08-12T13:46:24;40.40;;;8.05;;
63008;SDS011;49099;28.428;-16.488;2023-08-12T13:48:52;46.58;;;8.43;;
63008;SDS011;49099;28.428;-16.488;2023-08-12T13:51:19;48.25;;;8.65;;
63008;SDS011;49099;28.428;-16.488;2023-08-12T13:53:46;42.60;;;9.07;;
63008;SDS011;49099;28.428;-16.488;2023-08-12T13:56:14;49.50;;;8.52;;
63008;SDS011;49099;28.428;-16.488;2023-08-12T13:58:42;51.20;;;9.73;;
63008;SDS011;49099;28.428;-16.488;2023-08-12T14:01:09;48.70;;;8.68;;
63008;SDS011;49099;28.428;-16.488;2023-08-12T14:03:37;43.35;;;8.27;;
63008;SDS011;49099;28.428;-16.488;2023-08-12T14:06:04;48.42;;;9.25;;
63008;SDS011;49099;28.428;-16.488;2023-08-12T14:08:31;41.05;;;8.35;;
63008;SDS011;49099;28.428;-16.488;2023-08-12T14:10:59;45.45;;;8.40;;
63008;SDS011;49099;28.428;-16.488;2023-08-12T14:13:26;41.75;;;8.73;;
63008;SDS011;49099;28.428;-16.488;2023-08-12T14:15:54;37.20;;;8.30;;